| time (UTC) | temp F | wind direction | speed MPH | gust MPH | rain 1hr in | rain 24hr in | rain mn in | humidity % | barometer mb |
| 20260902203007 | 58 | 186 | 1.0 | 5.0 | 0.06 | 0.20 | 0.20 | 93 | 1001.9 |
| 20260902201509 | 58 | 266 | 0.0 | 4.0 | 0.08 | 0.20 | 0.20 | 93 | 1002.0 |
| 20260902200003 | 58 | 120 | 0.0 | 3.0 | 0.08 | 0.18 | 0.18 | 93 | 1002.2 |
| 20260902194502 | 58 | 355 | 1.0 | 3.0 | 0.07 | 0.16 | 0.16 | 93 | 1002.4 |
| 20260902193101 | 58 | 279 | 1.0 | 4.0 | 0.06 | 0.14 | 0.14 | 92 | 1002.4 |
| 20260902193000 | 58 | 279 | 1.0 | 4.0 | 0.06 | 0.14 | 0.14 | 92 | 1002.5 |
| 20260902191604 | 58 | 22 | 0.0 | 3.0 | 0.06 | 0.12 | 0.12 | 92 | 1002.6 |
| 20260902190059 | 58 | 18 | 1.0 | 4.0 | 0.07 | 0.11 | 0.11 | 92 | 1002.7 |
| 20260902184558 | 58 | 355 | 1.0 | 8.0 | 0.07 | 0.09 | 0.09 | 91 | 1002.8 |
| 20260902183057 | 58 | 86 | 0.0 | 6.0 | 0.07 | 0.08 | 0.08 | 90 | 1003.0 |
| 20260902181604 | 59 | 101 | 1.0 | 5.0 | 0.05 | 0.06 | 0.06 | 90 | 1003.3 |
| 20260902180110 | 59 | 106 | 0.0 | 3.0 | 0.04 | 0.04 | 0.04 | 89 | 1003.2 |
| 20260902174558 | 60 | 161 | 0.0 | 3.0 | 0.02 | 0.02 | 0.02 | 89 | 1003.0 |
| 20260902173052 | 60 | 140 | 0.0 | 2.0 | 0.01 | 0.01 | 0.01 | 86 | 1002.9 |
| 20260902171553 | 61 | 140 | 0.0 | 10.0 | 0.01 | 0.01 | 0.01 | 84 | 1002.8 |
| 20260902170051 | 62 | 137 | 1.0 | 4.0 | 0.00 | 0.00 | 0.00 | 79 | 1002.8 |
| 20260902164549 | 61 | 190 | 0.0 | 2.0 | 0.00 | 0.00 | 0.00 | 86 | 1002.5 |
| 20260902163049 | 60 | 360 | 1.0 | 3.0 | 0.00 | 0.00 | 0.00 | 87 | 1002.5 |
| 20260902161550 | 60 | 163 | 0.0 | 1.0 | 0.00 | 0.00 | 0.00 | 87 | 1002.5 |
| 20260902160052 | 61 | 164 | 0.0 | 2.0 | 0.00 | 0.00 | 0.00 | 85 | 1002.8 |
| 20260902154547 | 62 | 164 | 0.0 | 3.0 | 0.00 | 0.00 | 0.00 | 81 | 1002.9 |
| 20260902153045 | 62 | 80 | 1.0 | 3.0 | 0.00 | 0.00 | 0.00 | 77 | 1002.8 |
| 20260902151546 | 62 | 122 | 0.0 | 2.0 | 0.00 | 0.00 | 0.00 | 78 | 1003.0 |
| 20260902150039 | 61 | 11 | 0.0 | 3.0 | 0.00 | 0.00 | 0.00 | 78 | 1003.2 |
| 20260902144552 | 61 | 80 | 0.0 | 3.0 | 0.00 | 0.00 | 0.00 | 79 | 1003.4 |
| 20260902143036 | 60 | 355 | 0.0 | 2.0 | 0.00 | 0.00 | 0.00 | 80 | 1003.5 |
| 20260902141536 | 60 | 37 | 1.0 | 2.0 | 0.00 | 0.00 | 0.00 | 79 | 1003.7 |
| 20260902140029 | 60 | 320 | 0.0 | 3.0 | 0.00 | 0.00 | 0.00 | 79 | 1003.9 |
| 20260902134532 | 60 | 321 | 0.0 | 3.0 | 0.00 | 0.00 | 0.00 | 81 | 1004.4 |
| 20260902133025 | 60 | 105 | 0.0 | 3.0 | 0.00 | 0.00 | 0.00 | 81 | 1004.6 |
| 20260902131522 | 59 | 73 | 0.0 | 1.0 | 0.00 | 0.00 | 0.00 | 83 | 1004.8 |
| 20260902130022 | 59 | 32 | 0.0 | 1.0 | 0.00 | 0.00 | 0.00 | 83 | 1004.9 |
| 20260902124524 | 60 | 30 | 0.0 | 2.0 | 0.00 | 0.00 | 0.00 | 82 | 1005.1 |
| 20260902123018 | 60 | 40 | 0.0 | 2.0 | 0.00 | 0.00 | 0.00 | 83 | 1005.2 |
| 20260902121516 | 60 | 38 | 0.0 | 2.0 | 0.00 | 0.00 | 0.00 | 82 | 1005.5 |
| 20260902120015 | 60 | 38 | 0.0 | 3.0 | 0.00 | 0.00 | 0.00 | 82 | 1005.5 |
| 20260902114515 | 60 | 44 | 0.0 | 5.0 | 0.00 | 0.00 | 0.00 | 81 | 1005.7 |
| 20260902113011 | 60 | 84 | 0.0 | 2.0 | 0.00 | 0.00 | 0.00 | 81 | 1005.9 |
| 20260902111510 | 60 | 211 | 0.0 | 2.0 | 0.00 | 0.00 | 0.00 | 81 | 1006.1 |
| 20260902110010 | 60 | 185 | 0.0 | 2.0 | 0.00 | 0.00 | 0.00 | 81 | 1006.1 |
| 20260902104511 | 60 | 224 | 0.0 | 3.0 | 0.00 | 0.00 | 0.00 | 82 | 1006.1 |
| 20260902103011 | 60 | 16 | 0.0 | 2.0 | 0.00 | 0.00 | 0.00 | 83 | 1006.2 |
| 20260902101517 | 60 | 16 | 0.0 | 2.0 | 0.00 | 0.00 | 0.00 | 83 | 1006.4 |
| 20260902100009 | 60 | 292 | 1.0 | 2.0 | 0.00 | 0.00 | 0.00 | 84 | 1006.3 |
| 20260902094504 | 60 | 149 | 0.0 | 2.0 | 0.00 | 0.00 | 0.00 | 84 | 1006.3 |
| 20260902093002 | 60 | 161 | 0.0 | 2.0 | 0.00 | 0.00 | 0.00 | 84 | 1006.5 |
| 20260902091501 | 60 | 153 | 0.0 | 2.0 | 0.00 | 0.00 | 0.00 | 85 | 1006.7 |
| 20260902084606 | 60 | 148 | 0.0 | 2.0 | 0.00 | 0.00 | 0.00 | 84 | 1006.9 |
| 20260902083100 | 61 | 148 | 0.0 | 2.0 | 0.00 | 0.00 | 0.00 | 82 | 1006.8 |
| 20260902081558 | 61 | 159 | 0.0 | 3.0 | 0.00 | 0.00 | 0.00 | 83 | 1006.8 |
| 20260902080112 | 61 | 159 | 0.0 | 3.0 | 0.00 | 0.00 | 0.00 | 83 | 1006.9 |
| 20260902074555 | 61 | 67 | 0.0 | 3.0 | 0.00 | 0.00 | 0.00 | 83 | 1006.9 |
| 20260902073052 | 60 | 234 | 0.0 | 2.0 | 0.00 | 0.00 | 0.00 | 85 | 1007.1 |
| 20260902071547 | 59 | 312 | 0.0 | 1.0 | 0.00 | 0.00 | 0.00 | 89 | 1007.3 |
| 20260902070043 | 59 | 312 | 0.0 | 1.0 | 0.00 | 0.00 | 0.00 | 91 | 1007.3 |
| 20260902064556 | 59 | 312 | 0.0 | 1.0 | 0.00 | 0.00 | 0.00 | 91 | 1007.3 |
| 20260902063046 | 59 | 312 | 0.0 | 2.0 | 0.00 | 0.00 | 0.00 | 91 | 1007.3 |
| 20260902061552 | 59 | 312 | 0.0 | 1.0 | 0.00 | 0.00 | 0.00 | 91 | 1007.2 |
| 20260902060040 | 59 | 312 | 0.0 | 1.0 | 0.00 | 0.00 | 0.00 | 91 | 1007.5 |
| 20260902054540 | 59 | 312 | 0.0 | 0.0 | 0.00 | 0.00 | 0.00 | 91 | 1007.7 |
| 20260902053038 | 59 | 312 | 0.0 | 1.0 | 0.00 | 0.00 | 0.00 | 90 | 1007.8 |
| 20260902051539 | 60 | 312 | 0.0 | 0.0 | 0.00 | 0.00 | 0.00 | 90 | 1007.6 |
| 20260902050036 | 60 | 312 | 0.0 | 1.0 | 0.00 | 0.00 | 0.00 | 89 | 1007.6 |
| 20260902044536 | 60 | 312 | 0.0 | 0.0 | 0.00 | 0.00 | 0.00 | 89 | 1007.6 |
| 20260902043037 | 61 | 312 | 0.0 | 0.0 | 0.00 | 0.00 | 0.00 | 89 | 1007.6 |
| 20260902041533 | 61 | 312 | 0.0 | 1.0 | 0.00 | 0.00 | 0.00 | 88 | 1007.6 |
| 20260902040032 | 61 | 312 | 0.0 | 2.0 | 0.00 | 0.00 | 0.00 | 87 | 1007.7 |
| 20260902034532 | 61 | 312 | 0.0 | 1.0 | 0.00 | 0.00 | 0.00 | 87 | 1007.5 |
| 20260902033050 | 62 | 312 | 0.0 | 2.0 | 0.00 | 0.00 | 0.00 | 86 | 1007.3 |
| 20260902031530 | 62 | 312 | 0.0 | 1.0 | 0.00 | 0.00 | 0.00 | 86 | 1007.3 |
| 20260902030030 | 63 | 260 | 0.0 | 2.0 | 0.00 | 0.00 | 0.00 | 84 | 1007.2 |
| 20260902024529 | 63 | 243 | 0.0 | 2.0 | 0.00 | 0.00 | 0.00 | 83 | 1007.2 |
| 20260902023029 | 64 | 119 | 0.0 | 1.0 | 0.00 | 0.00 | 0.00 | 81 | 1007.2 |
| 20260902021528 | 65 | 119 | 0.0 | 2.0 | 0.00 | 0.00 | 0.00 | 79 | 1007.1 |
| 20260902020036 | 65 | 93 | 0.0 | 1.0 | 0.00 | 0.00 | 0.00 | 78 | 1007.0 |
| 20260902014532 | 65 | 93 | 0.0 | 3.0 | 0.00 | 0.00 | 0.00 | 78 | 1007.0 |
| 20260902013027 | 65 | 96 | 0.0 | 3.0 | 0.00 | 0.00 | 0.00 | 77 | 1007.0 |
| 20260902011526 | 65 | 99 | 0.0 | 2.0 | 0.00 | 0.00 | 0.00 | 77 | 1007.1 |
| 20260902010026 | 65 | 99 | 0.0 | 2.0 | 0.00 | 0.00 | 0.00 | 77 | 1007.1 |
| 20260902004526 | 66 | 99 | 0.0 | 2.0 | 0.00 | 0.00 | 0.00 | 77 | 1006.9 |
| 20260902003025 | 66 | 101 | 0.0 | 4.0 | 0.00 | 0.00 | 0.00 | 76 | 1006.8 |
| 20260902001524 | 67 | 344 | 1.0 | 5.0 | 0.00 | 0.00 | 0.00 | 74 | 1006.8 |
| 20260902000024 | 67 | 75 | 1.0 | 3.0 | 0.00 | 0.00 | 0.00 | 71 | 1006.8 |
| 20260901234523 | 67 | 96 | 0.0 | 2.0 | 0.00 | 0.00 | 0.00 | 74 | 1007.1 |
| 20260901233029 | 67 | 71 | 0.0 | 3.0 | 0.00 | 0.00 | 0.00 | 73 | 1007.1 |
| 20260901231520 | 66 | 76 | 0.0 | 2.0 | 0.00 | 0.00 | 0.00 | 74 | 1007.2 |
| 20260901230019 | 66 | 82 | 0.0 | 3.0 | 0.00 | 0.00 | 0.00 | 74 | 1007.3 |
| 20260901224532 | 66 | 88 | 0.0 | 1.0 | 0.00 | 0.00 | 0.00 | 74 | 1007.3 |
| 20260901223016 | 66 | 121 | 1.0 | 3.0 | 0.00 | 0.00 | 0.00 | 75 | 1007.3 |
| 20260901221515 | 65 | 130 | 0.0 | 2.0 | 0.00 | 0.00 | 0.00 | 77 | 1007.4 |
| 20260901220015 | 65 | 130 | 0.0 | 2.0 | 0.00 | 0.00 | 0.00 | 78 | 1007.3 |
| 20260901214515 | 65 | 130 | 0.0 | 2.0 | 0.00 | 0.00 | 0.00 | 77 | 1007.3 |
| 20260901213016 | 66 | 144 | 1.0 | 3.0 | 0.00 | 0.00 | 0.00 | 75 | 1007.3 |
| 20260901211521 | 65 | 283 | 0.0 | 2.0 | 0.00 | 0.00 | 0.00 | 78 | 1007.5 |
| 20260901210010 | 64 | 161 | 0.0 | 2.0 | 0.00 | 0.00 | 0.00 | 79 | 1007.5 |